sensor_id;sensor_type;location;lat;lon;timestamp;P1;durP1;ratioP1;P2;durP2;ratioP2
26686;SDS011;14298;50.900;4.648;2023-05-07T00:00:28;2.60;;;2.40;;
26686;SDS011;14298;50.900;4.648;2023-05-07T00:02:56;4.53;;;2.70;;
26686;SDS011;14298;50.900;4.648;2023-05-07T00:05:24;2.30;;;2.10;;
26686;SDS011;14298;50.900;4.648;2023-05-07T00:07:52;2.83;;;2.37;;
26686;SDS011;14298;50.900;4.648;2023-05-07T00:10:20;2.43;;;2.23;;
26686;SDS011;14298;50.900;4.648;2023-05-07T00:12:48;2.93;;;2.30;;
26686;SDS011;14298;50.900;4.648;2023-05-07T00:15:16;2.00;;;1.90;;
26686;SDS011;14298;50.900;4.648;2023-05-07T00:17:44;6.37;;;2.57;;
26686;SDS011;14298;50.900;4.648;2023-05-07T00:20:12;2.77;;;2.53;;
26686;SDS011;14298;50.900;4.648;2023-05-07T00:22:40;3.23;;;2.57;;
26686;SDS011;14298;50.900;4.648;2023-05-07T00:25:08;1.50;;;1.40;;
26686;SDS011;14298;50.900;4.648;2023-05-07T00:27:37;5.33;;;2.80;;
26686;SDS011;14298;50.900;4.648;2023-05-07T00:30:05;3.23;;;2.37;;
26686;SDS011;14298;50.900;4.648;2023-05-07T00:32:34;3.20;;;2.87;;
26686;SDS011;14298;50.900;4.648;2023-05-07T00:35:02;2.80;;;2.30;;
26686;SDS011;14298;50.900;4.648;2023-05-07T00:37:30;2.23;;;2.03;;
26686;SDS011;14298;50.900;4.648;2023-05-07T00:39:58;4.93;;;2.90;;
26686;SDS011;14298;50.900;4.648;2023-05-07T00:42:27;2.57;;;2.37;;
26686;SDS011;14298;50.900;4.648;2023-05-07T00:44:56;3.47;;;3.17;;
26686;SDS011;14298;50.900;4.648;2023-05-07T00:47:24;3.23;;;2.87;;
26686;SDS011;14298;50.900;4.648;2023-05-07T00:49:53;4.70;;;3.17;;
26686;SDS011;14298;50.900;4.648;2023-05-07T00:52:21;3.23;;;2.93;;
26686;SDS011;14298;50.900;4.648;2023-05-07T00:54:50;3.17;;;2.53;;
26686;SDS011;14298;50.900;4.648;2023-05-07T00:57:19;3.83;;;3.43;;
26686;SDS011;14298;50.900;4.648;2023-05-07T00:59:48;5.23;;;3.93;;
26686;SDS011;14298;50.900;4.648;2023-05-07T01:02:16;3.60;;;3.27;;
26686;SDS011;14298;50.900;4.648;2023-05-07T01:04:44;2.67;;;2.47;;
26686;SDS011;14298;50.900;4.648;2023-05-07T01:07:12;4.57;;;3.33;;
26686;SDS011;14298;50.900;4.648;2023-05-07T01:09:40;3.90;;;3.47;;
26686;SDS011;14298;50.900;4.648;2023-05-07T01:12:08;3.60;;;3.10;;
26686;SDS011;14298;50.900;4.648;2023-05-07T01:14:36;3.43;;;2.80;;
26686;SDS011;14298;50.900;4.648;2023-05-07T01:17:04;4.73;;;2.90;;
26686;SDS011;14298;50.900;4.648;2023-05-07T01:19:33;3.93;;;3.40;;
26686;SDS011;14298;50.900;4.648;2023-05-07T01:22:03;3.33;;;3.03;;
26686;SDS011;14298;50.900;4.648;2023-05-07T01:24:31;6.90;;;4.03;;
26686;SDS011;14298;50.900;4.648;2023-05-07T01:27:00;3.17;;;2.87;;
26686;SDS011;14298;50.900;4.648;2023-05-07T01:29:28;3.67;;;3.37;;
26686;SDS011;14298;50.900;4.648;2023-05-07T01:31:57;3.63;;;3.03;;
26686;SDS011;14298;50.900;4.648;2023-05-07T01:34:26;6.20;;;3.80;;
26686;SDS011;14298;50.900;4.648;2023-05-07T01:36:55;2.17;;;1.97;;
26686;SDS011;14298;50.900;4.648;2023-05-07T01:39:25;4.43;;;3.73;;
26686;SDS011;14298;50.900;4.648;2023-05-07T01:41:55;3.40;;;3.10;;
26686;SDS011;14298;50.900;4.648;2023-05-07T01:44:24;7.57;;;3.00;;
26686;SDS011;14298;50.900;4.648;2023-05-07T01:46:52;4.80;;;3.30;;
26686;SDS011;14298;50.900;4.648;2023-05-07T01:49:21;8.43;;;3.57;;
26686;SDS011;14298;50.900;4.648;2023-05-07T01:51:49;4.70;;;3.07;;
26686;SDS011;14298;50.900;4.648;2023-05-07T01:54:17;3.60;;;2.87;;
26686;SDS011;14298;50.900;4.648;2023-05-07T01:56:45;5.63;;;3.10;;
26686;SDS011;14298;50.900;4.648;2023-05-07T01:59:15;3.93;;;3.53;;
26686;SDS011;14298;50.900;4.648;2023-05-07T02:01:43;3.83;;;3.30;;
26686;SDS011;14298;50.900;4.648;2023-05-07T02:04:11;6.43;;;3.60;;
26686;SDS011;14298;50.900;4.648;2023-05-07T02:06:39;3.90;;;2.90;;
26686;SDS011;14298;50.900;4.648;2023-05-07T02:09:07;3.23;;;2.50;;
26686;SDS011;14298;50.900;4.648;2023-05-07T02:11:35;5.27;;;3.03;;
26686;SDS011;14298;50.900;4.648;2023-05-07T02:14:03;8.50;;;4.17;;
26686;SDS011;14298;50.900;4.648;2023-05-07T02:16:32;6.10;;;3.50;;
26686;SDS011;14298;50.900;4.648;2023-05-07T02:19:00;2.57;;;2.37;;
26686;SDS011;14298;50.900;4.648;2023-05-07T02:21:28;5.10;;;3.87;;
26686;SDS011;14298;50.900;4.648;2023-05-07T02:23:56;10.30;;;3.80;;
26686;SDS011;14298;50.900;4.648;2023-05-07T02:26:24;3.97;;;3.27;;
26686;SDS011;14298;50.900;4.648;2023-05-07T02:28:52;3.63;;;3.27;;
26686;SDS011;14298;50.900;4.648;2023-05-07T02:31:20;3.77;;;3.00;;
26686;SDS011;14298;50.900;4.648;2023-05-07T02:33:48;7.00;;;4.03;;
26686;SDS011;14298;50.900;4.648;2023-05-07T02:36:16;4.30;;;3.70;;
26686;SDS011;14298;50.900;4.648;2023-05-07T02:38:44;4.83;;;3.83;;
26686;SDS011;14298;50.900;4.648;2023-05-07T02:41:12;5.40;;;3.33;;
26686;SDS011;14298;50.900;4.648;2023-05-07T02:43:40;4.33;;;3.93;;
26686;SDS011;14298;50.900;4.648;2023-05-07T02:46:08;4.23;;;3.83;;
26686;SDS011;14298;50.900;4.648;2023-05-07T02:48:37;5.13;;;3.80;;
26686;SDS011;14298;50.900;4.648;2023-05-07T02:51:05;6.50;;;3.97;;
26686;SDS011;14298;50.900;4.648;2023-05-07T02:53:33;3.57;;;3.27;;
26686;SDS011;14298;50.900;4.648;2023-05-07T02:56:01;4.63;;;3.57;;
26686;SDS011;14298;50.900;4.648;2023-05-07T02:58:29;4.73;;;3.60;;
26686;SDS011;14298;50.900;4.648;2023-05-07T03:00:57;10.03;;;2.97;;
26686;SDS011;14298;50.900;4.648;2023-05-07T03:03:26;3.20;;;2.93;;
26686;SDS011;14298;50.900;4.648;2023-05-07T03:05:54;5.53;;;3.53;;
26686;SDS011;14298;50.900;4.648;2023-05-07T03:08:21;4.23;;;3.83;;
26686;SDS011;14298;50.900;4.648;2023-05-07T03:10:50;2.17;;;2.03;;
26686;SDS011;14298;50.900;4.648;2023-05-07T03:13:18;2.40;;;2.20;;
26686;SDS011;14298;50.900;4.648;2023-05-07T03:15:46;2.90;;;2.60;;
26686;SDS011;14298;50.900;4.648;2023-05-07T03:18:14;2.77;;;2.57;;
26686;SDS011;14298;50.900;4.648;2023-05-07T03:20:42;3.50;;;2.80;;
26686;SDS011;14298;50.900;4.648;2023-05-07T03:23:10;3.30;;;3.00;;
26686;SDS011;14298;50.900;4.648;2023-05-07T03:25:38;8.17;;;3.50;;
26686;SDS011;14298;50.900;4.648;2023-05-07T03:28:06;6.97;;;3.30;;
26686;SDS011;14298;50.900;4.648;2023-05-07T03:30:34;3.53;;;3.07;;
26686;SDS011;14298;50.900;4.648;2023-05-07T03:33:02;3.30;;;2.67;;
26686;SDS011;14298;50.900;4.648;2023-05-07T03:35:30;4.47;;;3.37;;
26686;SDS011;14298;50.900;4.648;2023-05-07T03:37:58;4.37;;;3.90;;
26686;SDS011;14298;50.900;4.648;2023-05-07T03:40:26;9.00;;;3.17;;
26686;SDS011;14298;50.900;4.648;2023-05-07T03:42:54;6.53;;;3.90;;
26686;SDS011;14298;50.900;4.648;2023-05-07T03:45:22;5.00;;;2.70;;
26686;SDS011;14298;50.900;4.648;2023-05-07T03:47:50;3.57;;;3.17;;
26686;SDS011;14298;50.900;4.648;2023-05-07T03:50:18;7.83;;;3.40;;
26686;SDS011;14298;50.900;4.648;2023-05-07T03:52:46;5.30;;;3.63;;
26686;SDS011;14298;50.900;4.648;2023-05-07T03:55:14;4.00;;;3.60;;
26686;SDS011;14298;50.900;4.648;2023-05-07T03:57:42;4.00;;;2.90;;
26686;SDS011;14298;50.900;4.648;2023-05-07T04:00:10;3.87;;;2.70;;
26686;SDS011;14298;50.900;4.648;2023-05-07T04:02:39;3.23;;;2.23;;
26686;SDS011;14298;50.900;4.648;2023-05-07T04:05:07;2.90;;;2.70;;
26686;SDS011;14298;50.900;4.648;2023-05-07T04:07:35;5.00;;;4.30;;
26686;SDS011;14298;50.900;4.648;2023-05-07T04:10:03;4.00;;;3.57;;
26686;SDS011;14298;50.900;4.648;2023-05-07T04:12:31;4.33;;;3.63;;
26686;SDS011;14298;50.900;4.648;2023-05-07T04:14:59;3.77;;;3.07;;
26686;SDS011;14298;50.900;4.648;2023-05-07T04:17:27;3.80;;;3.50;;
26686;SDS011;14298;50.900;4.648;2023-05-07T04:19:55;6.37;;;4.27;;
26686;SDS011;14298;50.900;4.648;2023-05-07T04:22:23;3.77;;;3.47;;
26686;SDS011;14298;50.900;4.648;2023-05-07T04:24:51;4.53;;;3.63;;
26686;SDS011;14298;50.900;4.648;2023-05-07T04:27:19;6.50;;;3.77;;
26686;SDS011;14298;50.900;4.648;2023-05-07T04:29:47;4.20;;;3.80;;
26686;SDS011;14298;50.900;4.648;2023-05-07T04:32:15;4.77;;;4.03;;
26686;SDS011;14298;50.900;4.648;2023-05-07T04:34:43;4.67;;;3.67;;
26686;SDS011;14298;50.900;4.648;2023-05-07T04:37:11;5.27;;;4.27;;
26686;SDS011;14298;50.900;4.648;2023-05-07T04:39:39;5.00;;;4.07;;
26686;SDS011;14298;50.900;4.648;2023-05-07T04:42:07;4.63;;;3.97;;
26686;SDS011;14298;50.900;4.648;2023-05-07T04:44:35;2.97;;;2.77;;
26686;SDS011;14298;50.900;4.648;2023-05-07T04:47:04;3.77;;;3.47;;
26686;SDS011;14298;50.900;4.648;2023-05-07T04:49:32;4.00;;;3.60;;
26686;SDS011;14298;50.900;4.648;2023-05-07T04:52:00;3.43;;;3.13;;
26686;SDS011;14298;50.900;4.648;2023-05-07T04:54:28;4.10;;;3.40;;
26686;SDS011;14298;50.900;4.648;2023-05-07T04:56:56;5.70;;;4.07;;
26686;SDS011;14298;50.900;4.648;2023-05-07T04:59:24;4.43;;;4.03;;
26686;SDS011;14298;50.900;4.648;2023-05-07T05:01:52;10.13;;;4.33;;
26686;SDS011;14298;50.900;4.648;2023-05-07T05:04:20;5.77;;;3.63;;
26686;SDS011;14298;50.900;4.648;2023-05-07T05:06:48;5.03;;;3.10;;
26686;SDS011;14298;50.900;4.648;2023-05-07T05:09:16;8.93;;;4.53;;
26686;SDS011;14298;50.900;4.648;2023-05-07T05:11:44;6.93;;;3.80;;
26686;SDS011;14298;50.900;4.648;2023-05-07T05:14:12;3.47;;;3.17;;
26686;SDS011;14298;50.900;4.648;2023-05-07T05:16:40;7.10;;;4.97;;
26686;SDS011;14298;50.900;4.648;2023-05-07T05:19:08;3.80;;;3.40;;
26686;SDS011;14298;50.900;4.648;2023-05-07T05:21:36;6.77;;;4.27;;
26686;SDS011;14298;50.900;4.648;2023-05-07T05:24:04;5.50;;;4.10;;
26686;SDS011;14298;50.900;4.648;2023-05-07T05:26:32;12.10;;;4.30;;
26686;SDS011;14298;50.900;4.648;2023-05-07T05:29:00;4.43;;;3.23;;
26686;SDS011;14298;50.900;4.648;2023-05-07T05:31:28;5.87;;;4.57;;
26686;SDS011;14298;50.900;4.648;2023-05-07T05:33:56;4.10;;;3.07;;
26686;SDS011;14298;50.900;4.648;2023-05-07T05:36:24;9.13;;;3.90;;
26686;SDS011;14298;50.900;4.648;2023-05-07T05:38:52;3.70;;;3.40;;
26686;SDS011;14298;50.900;4.648;2023-05-07T05:41:20;3.90;;;3.13;;
26686;SDS011;14298;50.900;4.648;2023-05-07T05:43:48;5.23;;;4.30;;
26686;SDS011;14298;50.900;4.648;2023-05-07T05:46:16;3.60;;;3.30;;
26686;SDS011;14298;50.900;4.648;2023-05-07T05:48:44;4.03;;;3.37;;
26686;SDS011;14298;50.900;4.648;2023-05-07T05:51:12;5.90;;;4.23;;
26686;SDS011;14298;50.900;4.648;2023-05-07T05:53:40;5.53;;;4.07;;
26686;SDS011;14298;50.900;4.648;2023-05-07T05:56:08;3.47;;;3.17;;
26686;SDS011;14298;50.900;4.648;2023-05-07T05:58:37;6.00;;;4.30;;
26686;SDS011;14298;50.900;4.648;2023-05-07T06:01:05;3.73;;;3.07;;
26686;SDS011;14298;50.900;4.648;2023-05-07T06:03:32;5.07;;;3.43;;
26686;SDS011;14298;50.900;4.648;2023-05-07T06:06:01;4.00;;;3.40;;
26686;SDS011;14298;50.900;4.648;2023-05-07T06:08:29;3.00;;;2.57;;
26686;SDS011;14298;50.900;4.648;2023-05-07T06:10:57;6.37;;;3.47;;
26686;SDS011;14298;50.900;4.648;2023-05-07T06:13:27;7.13;;;3.43;;
26686;SDS011;14298;50.900;4.648;2023-05-07T06:15:55;8.33;;;3.30;;
26686;SDS011;14298;50.900;4.648;2023-05-07T06:18:23;4.10;;;3.13;;
26686;SDS011;14298;50.900;4.648;2023-05-07T06:20:51;4.63;;;3.43;;
26686;SDS011;14298;50.900;4.648;2023-05-07T06:23:19;6.00;;;3.07;;
26686;SDS011;14298;50.900;4.648;2023-05-07T06:25:48;4.50;;;3.57;;
26686;SDS011;14298;50.900;4.648;2023-05-07T06:28:17;5.63;;;3.20;;
26686;SDS011;14298;50.900;4.648;2023-05-07T06:30:45;3.40;;;3.10;;
26686;SDS011;14298;50.900;4.648;2023-05-07T06:33:14;4.50;;;3.10;;
26686;SDS011;14298;50.900;4.648;2023-05-07T06:35:42;2.83;;;2.47;;
26686;SDS011;14298;50.900;4.648;2023-05-07T06:38:10;8.03;;;2.70;;
26686;SDS011;14298;50.900;4.648;2023-05-07T06:40:39;2.97;;;2.67;;
26686;SDS011;14298;50.900;4.648;2023-05-07T06:43:07;2.37;;;2.17;;
26686;SDS011;14298;50.900;4.648;2023-05-07T06:45:35;2.97;;;2.37;;
26686;SDS011;14298;50.900;4.648;2023-05-07T06:48:03;2.33;;;2.13;;
26686;SDS011;14298;50.900;4.648;2023-05-07T06:50:31;2.53;;;2.30;;
26686;SDS011;14298;50.900;4.648;2023-05-07T06:52:59;5.10;;;2.43;;
26686;SDS011;14298;50.900;4.648;2023-05-07T06:55:27;1.83;;;1.73;;
26686;SDS011;14298;50.900;4.648;2023-05-07T07:00:42;2.57;;;1.97;;
26686;SDS011;14298;50.900;4.648;2023-05-07T07:03:11;3.47;;;2.07;;
26686;SDS011;14298;50.900;4.648;2023-05-07T07:05:42;3.83;;;1.63;;
26686;SDS011;14298;50.900;4.648;2023-05-07T07:08:10;2.63;;;1.87;;
26686;SDS011;14298;50.900;4.648;2023-05-07T07:10:38;1.83;;;1.60;;
26686;SDS011;14298;50.900;4.648;2023-05-07T07:13:06;1.53;;;1.43;;
26686;SDS011;14298;50.900;4.648;2023-05-07T07:15:34;1.70;;;1.50;;
26686;SDS011;14298;50.900;4.648;2023-05-07T07:18:02;3.07;;;1.97;;
26686;SDS011;14298;50.900;4.648;2023-05-07T07:20:30;2.20;;;1.27;;
26686;SDS011;14298;50.900;4.648;2023-05-07T07:22:58;4.63;;;1.60;;
26686;SDS011;14298;50.900;4.648;2023-05-07T07:25:26;3.20;;;2.33;;
26686;SDS011;14298;50.900;4.648;2023-05-07T07:27:54;2.53;;;1.60;;
26686;SDS011;14298;50.900;4.648;2023-05-07T07:30:22;2.50;;;2.13;;
26686;SDS011;14298;50.900;4.648;2023-05-07T07:32:50;3.20;;;2.30;;
26686;SDS011;14298;50.900;4.648;2023-05-07T07:35:19;2.70;;;1.30;;
26686;SDS011;14298;50.900;4.648;2023-05-07T07:37:48;2.97;;;1.77;;
26686;SDS011;14298;50.900;4.648;2023-05-07T07:40:17;5.53;;;1.77;;
26686;SDS011;14298;50.900;4.648;2023-05-07T07:42:45;1.47;;;1.37;;
26686;SDS011;14298;50.900;4.648;2023-05-07T07:45:13;2.87;;;1.60;;
26686;SDS011;14298;50.900;4.648;2023-05-07T07:47:41;0.97;;;0.97;;
26686;SDS011;14298;50.900;4.648;2023-05-07T07:50:09;1.57;;;1.40;;
26686;SDS011;14298;50.900;4.648;2023-05-07T07:52:37;2.27;;;1.60;;
26686;SDS011;14298;50.900;4.648;2023-05-07T07:55:05;2.57;;;1.73;;
26686;SDS011;14298;50.900;4.648;2023-05-07T07:57:34;3.57;;;1.70;;
26686;SDS011;14298;50.900;4.648;2023-05-07T08:00:02;2.27;;;1.43;;
26686;SDS011;14298;50.900;4.648;2023-05-07T08:02:30;2.67;;;1.63;;
26686;SDS011;14298;50.900;4.648;2023-05-07T08:04:58;1.57;;;1.47;;
26686;SDS011;14298;50.900;4.648;2023-05-07T08:07:26;2.70;;;1.87;;
26686;SDS011;14298;50.900;4.648;2023-05-07T08:09:54;1.73;;;1.13;;
26686;SDS011;14298;50.900;4.648;2023-05-07T08:12:22;2.83;;;1.90;;
26686;SDS011;14298;50.900;4.648;2023-05-07T08:14:50;1.97;;;1.53;;
26686;SDS011;14298;50.900;4.648;2023-05-07T08:17:18;4.93;;;1.63;;
26686;SDS011;14298;50.900;4.648;2023-05-07T08:19:48;3.20;;;1.70;;
26686;SDS011;14298;50.900;4.648;2023-05-07T08:22:16;1.87;;;1.50;;
26686;SDS011;14298;50.900;4.648;2023-05-07T08:24:45;1.37;;;1.27;;
26686;SDS011;14298;50.900;4.648;2023-05-07T08:27:13;3.47;;;1.20;;
26686;SDS011;14298;50.900;4.648;2023-05-07T08:29:41;1.53;;;1.43;;
26686;SDS011;14298;50.900;4.648;2023-05-07T08:32:09;1.17;;;1.07;;
26686;SDS011;14298;50.900;4.648;2023-05-07T08:34:37;2.53;;;1.53;;
26686;SDS011;14298;50.900;4.648;2023-05-07T08:37:06;1.13;;;1.13;;
26686;SDS011;14298;50.900;4.648;2023-05-07T08:39:34;1.43;;;1.27;;
26686;SDS011;14298;50.900;4.648;2023-05-07T08:42:02;1.30;;;1.20;;
26686;SDS011;14298;50.900;4.648;2023-05-07T08:44:33;2.53;;;1.53;;
26686;SDS011;14298;50.900;4.648;2023-05-07T08:47:02;6.50;;;2.30;;
26686;SDS011;14298;50.900;4.648;2023-05-07T08:49:30;1.43;;;1.33;;
26686;SDS011;14298;50.900;4.648;2023-05-07T08:51:58;1.57;;;1.47;;
26686;SDS011;14298;50.900;4.648;2023-05-07T08:54:27;1.43;;;1.33;;
26686;SDS011;14298;50.900;4.648;2023-05-07T08:56:56;3.77;;;1.50;;
26686;SDS011;14298;50.900;4.648;2023-05-07T08:59:24;2.53;;;1.27;;
26686;SDS011;14298;50.900;4.648;2023-05-07T09:01:52;2.93;;;1.63;;
26686;SDS011;14298;50.900;4.648;2023-05-07T09:04:20;1.90;;;1.67;;
26686;SDS011;14298;50.900;4.648;2023-05-07T09:06:48;1.70;;;1.57;;
26686;SDS011;14298;50.900;4.648;2023-05-07T09:09:17;1.80;;;1.47;;
26686;SDS011;14298;50.900;4.648;2023-05-07T09:11:45;2.27;;;1.43;;
26686;SDS011;14298;50.900;4.648;2023-05-07T09:14:13;1.43;;;1.33;;
26686;SDS011;14298;50.900;4.648;2023-05-07T09:16:41;5.97;;;1.40;;
26686;SDS011;14298;50.900;4.648;2023-05-07T09:19:09;2.40;;;1.73;;
26686;SDS011;14298;50.900;4.648;2023-05-07T09:21:37;3.90;;;1.40;;
26686;SDS011;14298;50.900;4.648;2023-05-07T09:26:57;2.67;;;1.07;;
26686;SDS011;14298;50.900;4.648;2023-05-07T09:29:24;1.80;;;1.70;;
26686;SDS011;14298;50.900;4.648;2023-05-07T09:31:53;3.27;;;1.63;;
26686;SDS011;14298;50.900;4.648;2023-05-07T09:34:21;2.23;;;1.50;;
26686;SDS011;14298;50.900;4.648;2023-05-07T09:36:49;1.37;;;1.23;;
26686;SDS011;14298;50.900;4.648;2023-05-07T09:39:17;3.80;;;2.17;;
26686;SDS011;14298;50.900;4.648;2023-05-07T09:41:45;6.17;;;1.67;;
26686;SDS011;14298;50.900;4.648;2023-05-07T09:44:14;1.70;;;1.40;;
26686;SDS011;14298;50.900;4.648;2023-05-07T09:46:42;0.80;;;0.80;;
26686;SDS011;14298;50.900;4.648;2023-05-07T09:49:11;2.43;;;1.07;;
26686;SDS011;14298;50.900;4.648;2023-05-07T09:51:47;1.43;;;1.20;;
26686;SDS011;14298;50.900;4.648;2023-05-07T09:54:10;4.00;;;1.40;;
26686;SDS011;14298;50.900;4.648;2023-05-07T09:59:26;1.43;;;1.33;;
26686;SDS011;14298;50.900;4.648;2023-05-07T10:01:56;0.80;;;0.80;;
26686;SDS011;14298;50.900;4.648;2023-05-07T10:04:25;1.77;;;1.50;;
26686;SDS011;14298;50.900;4.648;2023-05-07T10:06:53;3.13;;;1.10;;
26686;SDS011;14298;50.900;4.648;2023-05-07T10:09:22;2.30;;;1.07;;
26686;SDS011;14298;50.900;4.648;2023-05-07T10:11:50;3.50;;;1.73;;
26686;SDS011;14298;50.900;4.648;2023-05-07T10:14:24;4.20;;;1.93;;
26686;SDS011;14298;50.900;4.648;2023-05-07T10:16:48;2.40;;;1.30;;
26686;SDS011;14298;50.900;4.648;2023-05-07T10:19:16;1.83;;;1.53;;
26686;SDS011;14298;50.900;4.648;2023-05-07T10:21:51;1.37;;;1.10;;
26686;SDS011;14298;50.900;4.648;2023-05-07T10:24:19;2.20;;;1.60;;
26686;SDS011;14298;50.900;4.648;2023-05-07T10:26:48;2.17;;;1.57;;
26686;SDS011;14298;50.900;4.648;2023-05-07T10:34:34;1.47;;;1.33;;
26686;SDS011;14298;50.900;4.648;2023-05-07T10:37:02;3.53;;;1.27;;
26686;SDS011;14298;50.900;4.648;2023-05-07T10:39:31;3.00;;;1.40;;
26686;SDS011;14298;50.900;4.648;2023-05-07T10:42:11;2.10;;;1.90;;
26686;SDS011;14298;50.900;4.648;2023-05-07T10:44:40;4.63;;;1.90;;
26686;SDS011;14298;50.900;4.648;2023-05-07T10:47:09;2.53;;;1.60;;
26686;SDS011;14298;50.900;4.648;2023-05-07T10:52:13;1.10;;;1.00;;
26686;SDS011;14298;50.900;4.648;2023-05-07T10:54:43;0.90;;;0.90;;
26686;SDS011;14298;50.900;4.648;2023-05-07T10:59:57;0.97;;;0.90;;
26686;SDS011;14298;50.900;4.648;2023-05-07T11:05:19;4.97;;;1.43;;
26686;SDS011;14298;50.900;4.648;2023-05-07T11:07:54;1.10;;;0.80;;
26686;SDS011;14298;50.900;4.648;2023-05-07T11:10:19;4.40;;;0.97;;
26686;SDS011;14298;50.900;4.648;2023-05-07T11:12:48;1.23;;;1.10;;
26686;SDS011;14298;50.900;4.648;2023-05-07T11:15:33;1.87;;;1.00;;
26686;SDS011;14298;50.900;4.648;2023-05-07T11:18:01;4.20;;;1.63;;
26686;SDS011;14298;50.900;4.648;2023-05-07T11:20:48;1.70;;;1.17;;
26686;SDS011;14298;50.900;4.648;2023-05-07T11:26:04;1.80;;;0.90;;
26686;SDS011;14298;50.900;4.648;2023-05-07T11:28:36;0.80;;;0.80;;
26686;SDS011;14298;50.900;4.648;2023-05-07T11:33:53;2.30;;;1.90;;
26686;SDS011;14298;50.900;4.648;2023-05-07T11:36:22;2.93;;;1.50;;
26686;SDS011;14298;50.900;4.648;2023-05-07T11:38:50;1.73;;;1.00;;
26686;SDS011;14298;50.900;4.648;2023-05-07T11:41:18;0.60;;;0.60;;
26686;SDS011;14298;50.900;4.648;2023-05-07T11:43:54;0.63;;;0.63;;
26686;SDS011;14298;50.900;4.648;2023-05-07T11:46:23;0.77;;;0.77;;
26686;SDS011;14298;50.900;4.648;2023-05-07T11:48:51;1.20;;;0.83;;
26686;SDS011;14298;50.900;4.648;2023-05-07T11:51:20;0.67;;;0.60;;
26686;SDS011;14298;50.900;4.648;2023-05-07T11:53:48;0.90;;;0.70;;
26686;SDS011;14298;50.900;4.648;2023-05-07T11:56:17;1.07;;;0.70;;
26686;SDS011;14298;50.900;4.648;2023-05-07T11:58:46;0.50;;;0.50;;
26686;SDS011;14298;50.900;4.648;2023-05-07T12:01:15;1.60;;;1.13;;
26686;SDS011;14298;50.900;4.648;2023-05-07T12:03:44;3.20;;;1.47;;
26686;SDS011;14298;50.900;4.648;2023-05-07T12:06:14;4.23;;;1.30;;
26686;SDS011;14298;50.900;4.648;2023-05-07T12:08:43;2.37;;;1.33;;
26686;SDS011;14298;50.900;4.648;2023-05-07T12:11:15;0.50;;;0.50;;
26686;SDS011;14298;50.900;4.648;2023-05-07T12:13:45;0.60;;;0.60;;
26686;SDS011;14298;50.900;4.648;2023-05-07T12:16:13;2.53;;;1.00;;
26686;SDS011;14298;50.900;4.648;2023-05-07T12:18:41;1.70;;;0.50;;
26686;SDS011;14298;50.900;4.648;2023-05-07T12:21:10;1.30;;;1.00;;
26686;SDS011;14298;50.900;4.648;2023-05-07T12:23:38;1.10;;;0.87;;
26686;SDS011;14298;50.900;4.648;2023-05-07T12:26:06;1.23;;;0.90;;
26686;SDS011;14298;50.900;4.648;2023-05-07T12:28:37;0.60;;;0.60;;
26686;SDS011;14298;50.900;4.648;2023-05-07T12:31:06;0.60;;;0.60;;
26686;SDS011;14298;50.900;4.648;2023-05-07T12:33:34;0.83;;;0.80;;
26686;SDS011;14298;50.900;4.648;2023-05-07T12:36:04;0.60;;;0.60;;
26686;SDS011;14298;50.900;4.648;2023-05-07T12:38:39;0.50;;;0.50;;
26686;SDS011;14298;50.900;4.648;2023-05-07T12:41:08;1.23;;;0.70;;
26686;SDS011;14298;50.900;4.648;2023-05-07T12:43:37;2.27;;;0.70;;
26686;SDS011;14298;50.900;4.648;2023-05-07T12:46:07;2.97;;;1.80;;
26686;SDS011;14298;50.900;4.648;2023-05-07T12:48:38;0.50;;;0.50;;
26686;SDS011;14298;50.900;4.648;2023-05-07T12:51:07;0.73;;;0.73;;
26686;SDS011;14298;50.900;4.648;2023-05-07T12:53:39;0.67;;;0.63;;
26686;SDS011;14298;50.900;4.648;2023-05-07T12:56:06;1.30;;;0.70;;
26686;SDS011;14298;50.900;4.648;2023-05-07T12:58:34;2.67;;;1.10;;
26686;SDS011;14298;50.900;4.648;2023-05-07T13:01:06;1.07;;;0.90;;
26686;SDS011;14298;50.900;4.648;2023-05-07T13:03:37;2.40;;;0.80;;
26686;SDS011;14298;50.900;4.648;2023-05-07T13:06:10;0.60;;;0.60;;
26686;SDS011;14298;50.900;4.648;2023-05-07T13:08:37;5.10;;;0.70;;
26686;SDS011;14298;50.900;4.648;2023-05-07T13:13:54;0.90;;;0.90;;
26686;SDS011;14298;50.900;4.648;2023-05-07T13:16:22;1.23;;;1.00;;
26686;SDS011;14298;50.900;4.648;2023-05-07T13:18:50;0.93;;;0.80;;
26686;SDS011;14298;50.900;4.648;2023-05-07T13:21:18;0.50;;;0.50;;
26686;SDS011;14298;50.900;4.648;2023-05-07T13:23:46;0.80;;;0.80;;
26686;SDS011;14298;50.900;4.648;2023-05-07T13:26:14;0.70;;;0.70;;
26686;SDS011;14298;50.900;4.648;2023-05-07T13:28:42;0.83;;;0.67;;
26686;SDS011;14298;50.900;4.648;2023-05-07T13:31:10;3.23;;;1.13;;
26686;SDS011;14298;50.900;4.648;2023-05-07T13:33:38;0.77;;;0.77;;
26686;SDS011;14298;50.900;4.648;2023-05-07T13:36:06;1.80;;;0.80;;
26686;SDS011;14298;50.900;4.648;2023-05-07T13:38:34;1.27;;;1.00;;
26686;SDS011;14298;50.900;4.648;2023-05-07T13:41:02;1.53;;;1.00;;
26686;SDS011;14298;50.900;4.648;2023-05-07T13:43:30;1.07;;;0.70;;
26686;SDS011;14298;50.900;4.648;2023-05-07T13:48:47;1.13;;;1.03;;
26686;SDS011;14298;50.900;4.648;2023-05-07T13:51:15;0.90;;;0.90;;
26686;SDS011;14298;50.900;4.648;2023-05-07T13:53:43;0.80;;;0.70;;
26686;SDS011;14298;50.900;4.648;2023-05-07T13:56:12;1.17;;;0.90;;
26686;SDS011;14298;50.900;4.648;2023-05-07T13:58:40;7.00;;;0.90;;
26686;SDS011;14298;50.900;4.648;2023-05-07T14:01:08;1.70;;;1.00;;
26686;SDS011;14298;50.900;4.648;2023-05-07T14:03:36;2.17;;;1.00;;
26686;SDS011;14298;50.900;4.648;2023-05-07T14:06:05;1.57;;;1.07;;
26686;SDS011;14298;50.900;4.648;2023-05-07T14:08:33;1.07;;;0.83;;
26686;SDS011;14298;50.900;4.648;2023-05-07T14:11:01;1.30;;;1.10;;
26686;SDS011;14298;50.900;4.648;2023-05-07T14:13:29;1.83;;;1.10;;
26686;SDS011;14298;50.900;4.648;2023-05-07T14:15:58;0.53;;;0.53;;
26686;SDS011;14298;50.900;4.648;2023-05-07T14:18:26;1.23;;;1.10;;
26686;SDS011;14298;50.900;4.648;2023-05-07T14:20:55;1.40;;;1.10;;
26686;SDS011;14298;50.900;4.648;2023-05-07T14:23:23;2.73;;;1.30;;
26686;SDS011;14298;50.900;4.648;2023-05-07T14:25:53;3.07;;;1.07;;
26686;SDS011;14298;50.900;4.648;2023-05-07T14:28:21;0.87;;;0.67;;
26686;SDS011;14298;50.900;4.648;2023-05-07T14:30:49;4.50;;;1.10;;
26686;SDS011;14298;50.900;4.648;2023-05-07T14:33:17;0.87;;;0.83;;
26686;SDS011;14298;50.900;4.648;2023-05-07T14:35:45;0.90;;;0.90;;
26686;SDS011;14298;50.900;4.648;2023-05-07T14:38:15;0.93;;;0.83;;
26686;SDS011;14298;50.900;4.648;2023-05-07T14:40:43;0.93;;;0.90;;
26686;SDS011;14298;50.900;4.648;2023-05-07T14:43:11;4.40;;;1.10;;
26686;SDS011;14298;50.900;4.648;2023-05-07T14:45:39;0.80;;;0.70;;
26686;SDS011;14298;50.900;4.648;2023-05-07T14:48:07;1.20;;;1.10;;
26686;SDS011;14298;50.900;4.648;2023-05-07T14:50:36;3.70;;;1.33;;
26686;SDS011;14298;50.900;4.648;2023-05-07T14:53:04;1.10;;;0.90;;
26686;SDS011;14298;50.900;4.648;2023-05-07T14:55:32;0.80;;;0.80;;
26686;SDS011;14298;50.900;4.648;2023-05-07T14:58:00;1.20;;;0.97;;
26686;SDS011;14298;50.900;4.648;2023-05-07T15:00:28;4.07;;;2.00;;
26686;SDS011;14298;50.900;4.648;2023-05-07T15:02:56;2.13;;;1.20;;
26686;SDS011;14298;50.900;4.648;2023-05-07T15:05:26;1.00;;;1.00;;
26686;SDS011;14298;50.900;4.648;2023-05-07T15:07:54;0.90;;;0.80;;
26686;SDS011;14298;50.900;4.648;2023-05-07T15:10:22;3.03;;;1.13;;
26686;SDS011;14298;50.900;4.648;2023-05-07T15:12:51;0.60;;;0.60;;
26686;SDS011;14298;50.900;4.648;2023-05-07T15:15:19;1.33;;;0.93;;
26686;SDS011;14298;50.900;4.648;2023-05-07T15:17:47;1.37;;;0.80;;
26686;SDS011;14298;50.900;4.648;2023-05-07T15:20:15;1.57;;;1.47;;
26686;SDS011;14298;50.900;4.648;2023-05-07T15:22:44;0.63;;;0.63;;
26686;SDS011;14298;50.900;4.648;2023-05-07T15:25:13;0.93;;;0.93;;
26686;SDS011;14298;50.900;4.648;2023-05-07T15:27:41;1.17;;;1.07;;